Time;durP1;ratioP1;P1;durP2;ratioP2;P2;SDS_P1;SDS_P2;PMS_P1;PMS_P2;Temp;Humidity;BMP_temperature;BMP_pressure;BME280_temperature;BME280_humidity;BME280_pressure;Samples;Min_cycle;Max_cycle;Signal;HPM_P1;HPM_P2
2024/04/05 00:01:18;;;;;;;2.17;0.95;;;;;;;12.90;41.05;95261.00;5026009;28;20218;-77
2024/04/05 00:03:44;;;;;;;1.77;1.00;;;;;;;12.80;41.35;95255.84;5008633;28;20029;-77
2024/04/05 00:06:10;;;;;;;2.33;1.00;;;;;;;12.76;41.00;95240.16;5009625;28;20088;-77
2024/04/05 00:08:36;;;;;;;1.55;0.77;;;;;;;12.77;41.19;95246.44;5008763;28;20036;-76
2024/04/05 00:11:01;;;;;;;4.22;1.20;;;;;;;12.80;41.29;95253.84;5025224;28;20037;-76
2024/04/05 00:13:27;;;;;;;3.88;1.30;;;;;;;12.77;41.45;95249.22;5008595;28;20026;-77
2024/04/05 00:15:52;;;;;;;1.42;0.90;;;;;;;12.79;41.09;95251.50;5024759;28;20502;-78
2024/04/05 00:18:21;;;;;;;2.60;1.20;;;;;;;12.73;41.35;95254.84;5025622;28;20029;-77
2024/04/05 00:20:47;;;;;;;3.40;1.30;;;;;;;12.66;41.25;95260.56;5024592;28;20053;-76
2024/04/05 00:23:13;;;;;;;2.70;0.93;;;;;;;12.73;41.22;95260.38;5008916;28;20376;-77
2024/04/05 00:25:38;;;;;;;4.05;0.95;;;;;;;12.69;41.30;95272.72;5024525;28;20026;-76
2024/04/05 00:28:04;;;;;;;2.25;1.00;;;;;;;12.67;41.32;95269.63;5025208;28;20087;-77
2024/04/05 00:30:29;;;;;;;2.83;1.10;;;;;;;12.64;41.55;95270.53;5026122;28;20446;-77
2024/04/05 00:32:55;;;;;;;5.78;1.40;;;;;;;12.58;41.68;95270.31;5026231;28;20101;-77
2024/04/05 00:35:20;;;;;;;3.72;1.58;;;;;;;12.54;41.79;95266.09;5008474;28;20025;-77
2024/04/05 00:37:45;;;;;;;2.30;1.55;;;;;;;12.47;41.98;95265.13;5025778;28;20091;-76
2024/04/05 00:40:11;;;;;;;4.35;1.90;;;;;;;12.36;42.19;95266.66;5025542;28;20025;-76
2024/04/05 00:42:37;;;;;;;2.58;1.45;;;;;;;12.34;42.05;95263.56;5024290;28;20469;-76
2024/04/05 00:45:06;;;;;;;3.78;1.65;;;;;;;12.27;42.12;95261.00;5008973;28;20029;-75
2024/04/05 00:47:35;;;;;;;6.88;1.75;;;;;;;12.22;42.17;95267.88;5024633;28;20037;-77
2024/04/05 00:50:02;;;;;;;3.85;1.90;;;;;;;12.08;42.36;95265.53;5024968;28;20454;-76
2024/04/05 00:52:28;;;;;;;5.18;1.70;;;;;;;12.03;42.47;95263.31;5024868;28;20029;-76
2024/04/05 00:54:54;;;;;;;2.47;1.30;;;;;;;12.02;42.61;95278.28;5024665;28;20090;-77
2024/04/05 00:57:20;;;;;;;4.47;1.70;;;;;;;11.99;42.65;95274.44;5008629;28;20059;-76
2024/04/05 00:59:46;;;;;;;3.55;1.65;;;;;;;11.94;43.13;95284.03;5007499;28;20542;-75
2024/04/05 01:02:12;;;;;;;5.70;1.58;;;;;;;11.92;43.21;95280.13;5024854;28;20037;-77
2024/04/05 01:04:37;;;;;;;3.13;1.50;;;;;;;11.86;43.20;95284.66;5025260;28;20026;-77
2024/04/05 01:07:02;;;;;;;4.15;1.20;;;;;;;11.74;43.51;95279.84;5024715;28;20064;-77
2024/04/05 01:09:28;;;;;;;5.68;1.73;;;;;;;11.77;43.26;95285.25;5024359;28;20029;-76
2024/04/05 01:11:58;;;;;;;5.28;1.60;;;;;;;11.69;43.49;95281.16;5024126;28;20025;-77
2024/04/05 01:14:23;;;;;;;2.88;1.48;;;;;;;11.61;43.54;95285.31;5024974;28;20511;-75
2024/04/05 01:16:49;;;;;;;6.13;1.85;;;;;;;11.61;43.54;95286.09;5023890;28;20117;-76
2024/04/05 01:19:16;;;;;;;2.72;1.27;;;;;;;11.50;43.79;95291.09;5008272;28;20476;-76
2024/04/05 01:21:44;;;;;;;2.70;1.50;;;;;;;11.49;43.85;95286.81;5007357;28;20499;-76
2024/04/05 01:24:11;;;;;;;3.28;1.58;;;;;;;11.48;43.79;95288.03;5026121;28;20026;-78
2024/04/05 01:26:36;;;;;;;3.85;1.48;;;;;;;11.46;43.80;95292.41;5007622;28;20400;-76
2024/04/05 01:29:01;;;;;;;6.72;1.90;;;;;;;11.39;43.96;95287.84;5007545;28;20034;-75
2024/04/05 01:31:27;;;;;;;3.75;1.42;;;;;;;11.33;44.30;95286.84;5024487;28;20022;-76
2024/04/05 01:33:54;;;;;;;3.25;1.67;;;;;;;11.32;44.43;95288.81;5023744;28;20100;-77
2024/04/05 01:36:19;;;;;;;8.35;1.80;;;;;;;11.31;44.38;95292.78;5024537;28;20487;-77
2024/04/05 01:38:44;;;;;;;5.22;1.80;;;;;;;11.23;44.71;95290.63;5028400;28;20038;-77
2024/04/05 01:41:10;;;;;;;4.15;1.50;;;;;;;11.16;45.05;95286.88;5011785;28;20025;-77
2024/04/05 01:43:35;;;;;;;2.63;1.60;;;;;;;11.16;44.98;95291.59;5027960;28;20032;-77
2024/04/05 01:46:00;;;;;;;5.53;2.22;;;;;;;10.99;45.19;95292.81;5028305;28;20024;-76
2024/04/05 01:48:26;;;;;;;3.08;1.40;;;;;;;10.85;45.86;95294.72;5029656;28;20034;-77
2024/04/05 01:50:51;;;;;;;4.25;2.63;;;;;;;10.83;45.94;95282.59;5027641;28;20026;-77
2024/04/05 01:53:17;;;;;;;5.38;2.33;;;;;;;10.81;46.22;95283.03;5029544;28;20500;-77
2024/04/05 01:55:42;;;;;;;8.68;2.85;;;;;;;10.81;46.19;95285.78;5027429;28;20036;-77
2024/04/05 01:58:09;;;;;;;5.78;3.40;;;;;;;10.78;46.47;95288.59;5028099;28;20026;-77
2024/04/05 02:00:36;;;;;;;5.38;3.15;;;;;;;10.75;46.63;95287.50;5027393;28;20071;-77
2024/04/05 02:03:01;;;;;;;7.95;4.80;;;;;;;10.62;46.69;95283.88;5028120;28;20029;-76
2024/04/05 02:05:26;;;;;;;11.77;5.57;;;;;;;10.53;47.05;95289.19;5027607;28;20022;-75
2024/04/05 02:07:52;;;;;;;9.18;3.85;;;;;;;10.61;46.86;95291.38;5028814;28;20064;-76
2024/04/05 02:10:18;;;;;;;11.43;5.80;;;;;;;10.70;46.72;95292.72;5029169;28;20034;-76
2024/04/05 02:12:43;;;;;;;13.95;6.05;;;;;;;10.64;46.69;95287.75;5028463;28;20029;-76
2024/04/05 02:15:08;;;;;;;10.15;5.65;;;;;;;10.68;46.70;95286.91;5029215;28;20816;-76
2024/04/05 02:17:34;;;;;;;11.05;4.95;;;;;;;10.64;46.88;95286.97;5010726;28;20052;-75
2024/04/05 02:19:59;;;;;;;12.70;6.65;;;;;;;10.69;47.06;95297.47;5027621;28;20040;-75
2024/04/05 02:22:24;;;;;;;12.13;6.47;;;;;;;10.72;46.88;95301.31;5010764;28;20065;-76
2024/04/05 02:24:50;;;;;;;10.93;5.82;;;;;;;10.67;46.92;95301.81;5029059;28;20103;-76
2024/04/05 02:27:16;;;;;;;13.38;6.75;;;;;;;10.68;47.05;95300.66;5027309;28;20511;-76
2024/04/05 02:29:41;;;;;;;14.18;6.65;;;;;;;10.72;47.21;95304.84;5026838;28;20044;-76
2024/04/05 02:32:07;;;;;;;20.63;8.80;;;;;;;10.72;47.08;95310.34;5027638;28;20496;-76
2024/04/05 02:34:32;;;;;;;16.98;7.82;;;;;;;10.71;47.35;95308.03;5028079;28;20060;-78
2024/04/05 02:36:57;;;;;;;17.50;7.82;;;;;;;10.75;47.32;95314.22;5027320;28;20083;-75
2024/04/05 02:39:23;;;;;;;10.95;6.13;;;;;;;10.70;47.48;95321.00;5027223;28;20032;-76
2024/04/05 02:41:48;;;;;;;11.43;6.10;;;;;;;10.63;47.83;95319.19;5010536;28;20107;-76
2024/04/05 02:44:14;;;;;;;11.85;5.53;;;;;;;10.68;47.79;95314.41;5027253;28;20022;-77
2024/04/05 02:46:40;;;;;;;10.65;5.53;;;;;;;10.58;48.08;95316.94;5027039;28;20490;-76
2024/04/05 02:49:06;;;;;;;10.95;5.20;;;;;;;10.54;47.81;95312.72;5010700;28;20025;-76
2024/04/05 02:51:32;;;;;;;9.45;4.95;;;;;;;10.60;47.80;95324.75;5010035;28;20042;-75
2024/04/05 02:53:57;;;;;;;9.82;4.63;;;;;;;10.52;47.70;95315.91;5027172;28;20060;-77
2024/04/05 02:56:23;;;;;;;10.40;4.10;;;;;;;10.58;47.36;95322.44;5028145;28;20025;-77
2024/04/05 02:58:48;;;;;;;9.50;4.20;;;;;;;10.60;47.30;95320.03;5028327;28;20031;-77
2024/04/05 03:01:14;;;;;;;8.27;3.60;;;;;;;10.58;47.27;95322.44;5027868;28;20029;-76
2024/04/05 03:03:39;;;;;;;8.02;3.50;;;;;;;10.61;47.20;95329.09;5026419;28;20025;-76
2024/04/05 03:06:05;;;;;;;6.85;3.20;;;;;;;10.56;47.20;95316.59;5028014;28;20107;-75
2024/04/05 03:08:30;;;;;;;7.95;3.38;;;;;;;10.54;47.26;95321.75;5026719;28;20034;-76
2024/04/05 03:10:55;;;;;;;9.18;3.22;;;;;;;10.55;47.43;95319.75;5028188;28;20476;-77
2024/04/05 03:13:21;;;;;;;7.60;2.60;;;;;;;10.52;47.53;95310.41;5026516;28;20087;-77
2024/04/05 03:15:47;;;;;;;9.38;3.28;;;;;;;10.53;47.36;95327.69;5026555;28;20032;-76
2024/04/05 03:18:13;;;;;;;7.05;3.42;;;;;;;10.45;47.55;95326.31;5026223;28;20451;-78
2024/04/05 03:20:38;;;;;;;7.93;3.33;;;;;;;10.49;47.44;95322.25;5026316;28;20033;-75
2024/04/05 03:23:05;;;;;;;7.05;3.60;;;;;;;10.47;47.48;95330.16;5026024;28;20515;-76
2024/04/05 03:25:30;;;;;;;8.00;2.95;;;;;;;10.47;47.61;95332.13;5010055;28;20029;-76
2024/04/05 03:27:55;;;;;;;6.15;3.00;;;;;;;10.45;47.67;95326.31;5026130;28;20431;-77
2024/04/05 03:30:21;;;;;;;8.02;3.67;;;;;;;10.40;47.55;95327.56;5009515;28;20078;-77
2024/04/05 03:32:46;;;;;;;8.52;2.70;;;;;;;10.42;47.44;95327.13;5026151;28;20037;-77
2024/04/05 03:35:12;;;;;;;5.03;2.85;;;;;;;10.42;47.61;95324.38;5027533;28;20032;-78
2024/04/05 03:37:37;;;;;;;7.25;3.22;;;;;;;10.39;48.10;95320.53;5025756;28;20103;-77
2024/04/05 03:40:03;;;;;;;7.53;3.05;;;;;;;10.32;48.21;95323.41;5026352;28;20029;-77
2024/04/05 03:42:28;;;;;;;8.02;2.97;;;;;;;10.26;48.23;95323.13;5026570;28;20495;-77
2024/04/05 03:44:54;;;;;;;6.60;3.10;;;;;;;10.29;48.19;95336.03;5026050;28;20034;-77
2024/04/05 03:47:19;;;;;;;7.78;2.70;;;;;;;10.25;48.16;95340.06;5027653;28;20098;-77
2024/04/05 03:49:45;;;;;;;7.75;3.28;;;;;;;10.26;48.06;95341.59;5025708;28;20483;-76
2024/04/05 03:52:10;;;;;;;7.68;2.92;;;;;;;10.25;48.26;95340.06;5025646;28;20036;-77
2024/04/05 03:54:36;;;;;;;7.57;2.92;;;;;;;10.28;48.13;95348.25;5027372;28;20108;-76
2024/04/05 03:57:02;;;;;;;8.43;2.90;;;;;;;10.29;47.97;95349.78;5026004;28;20356;-77
2024/04/05 03:59:28;;;;;;;7.70;3.05;;;;;;;10.29;48.11;95354.50;5025649;28;20035;-77
2024/04/05 04:01:54;;;;;;;12.00;3.92;;;;;;;10.27;48.35;95360.44;5024933;28;20025;-76
2024/04/05 04:04:19;;;;;;;10.68;3.40;;;;;;;10.28;48.27;95359.22;5025590;28;20026;-75
2024/04/05 04:06:45;;;;;;;7.32;3.58;;;;;;;10.30;48.25;95367.03;5025398;28;20063;-75
2024/04/05 04:09:11;;;;;;;7.35;3.72;;;;;;;10.32;48.33;95362.69;5025165;28;20579;-76
2024/04/05 04:11:39;;;;;;;7.43;4.13;;;;;;;10.27;48.06;95357.69;5009093;28;20032;-76
2024/04/05 04:14:05;;;;;;;12.75;4.63;;;;;;;10.25;48.00;95360.06;5026738;28;20087;-76
2024/04/05 04:16:31;;;;;;;6.68;4.00;;;;;;;10.27;47.96;95359.66;5025815;28;20021;-77
2024/04/05 04:18:56;;;;;;;8.55;3.42;;;;;;;10.29;48.18;95369.00;5008412;28;20041;-78
2024/04/05 04:21:24;;;;;;;7.20;2.88;;;;;;;10.33;47.75;95361.47;5025530;28;20031;-76
2024/04/05 04:23:52;;;;;;;5.20;2.95;;;;;;;10.32;47.95;95368.19;5024879;28;20032;-77
2024/04/05 04:26:18;;;;;;;6.78;2.75;;;;;;;10.40;47.60;95379.00;5025000;28;20492;-76
2024/04/05 04:28:44;;;;;;;4.05;2.30;;;;;;;10.42;47.69;95387.59;5025314;28;20044;-75
2024/04/05 04:31:16;;;;;;;6.28;2.22;;;;;;;10.39;47.59;95389.25;5009080;28;20091;-77
2024/04/05 04:33:41;;;;;;;7.30;3.05;;;;;;;10.40;47.89;95384.50;5025289;28;20037;-78
2024/04/05 04:36:07;;;;;;;8.85;2.67;;;;;;;10.44;47.85;95385.22;5025158;28;20507;-77
2024/04/05 04:38:32;;;;;;;11.65;3.50;;;;;;;10.45;47.95;95387.53;5025355;28;20121;-77
2024/04/05 04:40:58;;;;;;;5.07;3.03;;;;;;;10.45;47.82;95384.00;5008831;28;20026;-75
2024/04/05 04:43:24;;;;;;;6.00;2.60;;;;;;;10.51;47.86;95385.06;5025239;28;20037;-76
2024/04/05 04:45:49;;;;;;;5.85;3.22;;;;;;;10.52;47.92;95386.59;5025098;28;20033;-77
2024/04/05 04:48:15;;;;;;;9.15;2.53;;;;;;;10.57;47.55;95394.34;5025171;28;20037;-78
2024/04/05 04:50:40;;;;;;;6.55;2.75;;;;;;;10.59;47.76;95395.47;5026461;28;20029;-77
2024/04/05 04:53:05;;;;;;;6.28;2.60;;;;;;;10.62;47.84;95393.84;5024846;28;20033;-76
2024/04/05 04:55:31;;;;;;;11.43;3.25;;;;;;;10.63;47.69;95398.16;5026476;28;20022;-76
2024/04/05 04:57:56;;;;;;;6.03;3.42;;;;;;;10.69;47.46;95392.91;5025575;28;20415;-77
2024/04/05 05:00:21;;;;;;;10.65;3.75;;;;;;;10.71;47.45;95399.53;5025169;28;20040;-77
2024/04/05 05:02:47;;;;;;;7.90;3.47;;;;;;;10.79;47.45;95411.94;5025632;28;20037;-77
2024/04/05 05:05:12;;;;;;;8.15;3.63;;;;;;;10.80;47.58;95407.22;5024757;28;20499;-77
2024/04/05 05:07:39;;;;;;;9.93;3.22;;;;;;;10.78;47.48;95407.66;5026307;28;20099;-77
2024/04/05 05:10:06;;;;;;;8.77;3.55;;;;;;;10.85;47.45;95412.22;5028413;28;20404;-77
2024/04/05 05:12:31;;;;;;;9.98;3.60;;;;;;;10.95;47.28;95413.16;5025503;28;20119;-77
2024/04/05 05:14:57;;;;;;;14.43;4.05;;;;;;;10.95;47.13;95418.66;5024065;28;20470;-76
2024/04/05 05:17:22;;;;;;;17.05;3.92;;;;;;;10.98;47.10;95418.59;5026250;28;20100;-76
2024/04/05 05:19:48;;;;;;;9.85;4.07;;;;;;;10.99;47.17;95419.34;5023842;28;20013;-75
2024/04/05 05:22:13;;;;;;;8.23;4.53;;;;;;;11.01;47.08;95426.00;5025850;28;20044;-76
2024/04/05 05:24:38;;;;;;;10.27;3.58;;;;;;;11.07;46.95;95437.28;5025888;28;20143;-76
2024/04/05 05:27:04;;;;;;;10.55;3.97;;;;;;;11.05;47.24;95431.41;5024319;28;20096;-76
2024/04/05 05:29:29;;;;;;;15.63;5.20;;;;;;;11.12;47.18;95440.25;5025900;28;20580;-76
2024/04/05 05:31:55;;;;;;;14.65;4.40;;;;;;;11.14;47.13;95437.09;5025370;28;20022;-76
2024/04/05 05:34:20;;;;;;;7.38;4.15;;;;;;;11.10;47.09;95437.16;5024170;28;20373;-76
2024/04/05 05:36:45;;;;;;;6.15;3.92;;;;;;;11.08;47.09;95434.09;5024013;28;20034;-77
2024/04/05 05:39:11;;;;;;;12.15;3.78;;;;;;;11.17;46.99;95450.00;5025472;28;20041;-75
2024/04/05 05:41:37;;;;;;;10.88;3.92;;;;;;;11.17;47.01;95445.25;5025286;28;20103;-77
2024/04/05 05:44:03;;;;;;;10.82;4.60;;;;;;;11.22;47.11;95438.47;5023778;28;20028;-77
2024/04/05 05:46:28;;;;;;;11.88;4.00;;;;;;;11.30;46.90;95447.34;5024401;28;20476;-76
2024/04/05 05:48:53;;;;;;;6.90;3.53;;;;;;;11.34;46.89;95453.53;5023944;28;20018;-77
2024/04/05 05:51:19;;;;;;;13.65;3.88;;;;;;;11.35;46.97;95447.59;5025763;28;20109;-77
2024/04/05 05:53:44;;;;;;;9.30;4.22;;;;;;;11.40;46.85;95447.06;5023769;28;20464;-77
2024/04/05 05:56:09;;;;;;;11.77;3.58;;;;;;;11.43;46.88;95443.47;5024221;28;20037;-75
2024/04/05 05:58:36;;;;;;;8.88;4.10;;;;;;;11.47;46.56;95451.66;5023758;28;20439;-74
2024/04/05 06:01:07;;;;;;;10.30;3.63;;;;;;;11.55;46.50;95444.75;5025121;28;20037;-76
2024/04/05 06:03:33;;;;;;;11.30;3.60;;;;;;;11.65;46.19;95446.50;5023963;28;20029;-77
2024/04/05 06:06:01;;;;;;;9.88;3.45;;;;;;;11.70;46.14;95448.72;5005909;28;20033;-76
2024/04/05 06:08:29;;;;;;;10.55;3.60;;;;;;;11.83;46.04;95442.53;5022459;28;20029;-76
2024/04/05 06:10:58;;;;;;;10.90;4.00;;;;;;;11.90;45.88;95447.88;5022692;28;20049;-76
2024/04/05 06:13:23;;;;;;;9.48;4.45;;;;;;;11.97;45.73;95453.19;5023872;28;20036;-77
2024/04/05 06:15:57;;;;;;;6.90;3.38;;;;;;;12.01;45.84;95458.59;5022559;28;20030;-76
2024/04/05 06:18:26;;;;;;;;;;;;;;;12.08;45.83;95459.19;5008029;28;20029;-77
2024/04/05 06:20:55;;;;;;;10.15;3.45;;;;;;;12.08;46.05;95461.94;5024948;28;20399;-75
2024/04/05 06:23:23;;;;;;;8.20;3.53;;;;;;;12.11;45.87;95460.31;5023682;28;20062;-77
2024/04/05 06:25:57;;;;;;;6.93;3.40;;;;;;;12.16;45.79;95465.31;5011225;28;20061;-75
2024/04/05 06:28:22;;;;;;;12.13;3.65;;;;;;;12.27;45.37;95465.00;5027728;28;20022;-75
2024/04/05 06:30:49;;;;;;;9.60;4.38;;;;;;;12.36;45.64;95459.63;5027517;28;20040;-77
2024/04/05 06:33:14;;;;;;;8.80;3.10;;;;;;;12.49;45.43;95461.22;5028417;28;20033;-77
2024/04/05 06:35:40;;;;;;;9.60;3.67;;;;;;;12.55;45.13;95453.19;5027502;28;20033;-75
2024/04/05 06:38:07;;;;;;;10.38;3.38;;;;;;;12.56;45.23;95460.28;5010274;28;20042;-77
2024/04/05 06:40:32;;;;;;;4.95;3.15;;;;;;;12.61;45.24;95473.50;5011048;28;20021;-76
2024/04/05 06:42:58;;;;;;;8.95;3.38;;;;;;;12.63;45.15;95467.56;5026815;28;20106;-78
2024/04/05 06:45:23;;;;;;;15.57;4.32;;;;;;;12.72;45.19;95481.47;5028467;28;20025;-76
2024/04/05 06:47:49;;;;;;;11.57;3.60;;;;;;;12.85;45.17;95487.81;5010511;28;20057;-76
2024/04/05 06:50:14;;;;;;;9.68;2.95;;;;;;;12.85;44.91;95489.81;5028185;28;20029;-77
2024/04/05 06:52:40;;;;;;;12.75;4.50;;;;;;;12.89;44.89;95493.22;5027341;28;20091;-76
2024/04/05 06:55:05;;;;;;;10.00;3.75;;;;;;;12.96;44.84;95504.84;5010138;28;20030;-77
2024/04/05 06:57:31;;;;;;;7.68;3.53;;;;;;;13.01;44.82;95503.50;5026733;28;20041;-76
2024/04/05 06:59:56;;;;;;;6.63;3.47;;;;;;;13.02;45.01;95502.31;5026602;28;20116;-75
2024/04/05 07:02:22;;;;;;;10.73;4.28;;;;;;;13.13;45.54;95496.44;5026744;28;20033;-76
2024/04/05 07:04:48;;;;;;;10.70;4.03;;;;;;;13.25;45.49;95504.03;5027845;28;20030;-75
2024/04/05 07:07:13;;;;;;;8.57;3.38;;;;;;;13.37;44.75;95506.03;5026647;28;20057;-77
2024/04/05 07:09:38;;;;;;;12.60;4.10;;;;;;;13.43;44.57;95507.00;5027997;28;20029;-76
2024/04/05 07:12:06;;;;;;;10.43;3.08;;;;;;;13.50;44.58;95492.97;5027854;28;20030;-78
2024/04/05 07:14:31;;;;;;;7.53;3.25;;;;;;;13.58;44.66;95489.97;5028003;28;20087;-76
2024/04/05 07:16:57;;;;;;;10.35;3.97;;;;;;;13.68;44.49;95491.63;5027842;28;20517;-76
2024/04/05 07:19:24;;;;;;;5.90;3.85;;;;;;;13.77;44.25;95494.50;5026244;28;20029;-75
2024/04/05 07:21:50;;;;;;;6.80;3.33;;;;;;;13.85;44.28;95493.06;5026116;28;20083;-77
2024/04/05 07:24:15;;;;;;;7.65;3.65;;;;;;;13.94;44.43;95501.44;5026545;28;20029;-75
2024/04/05 07:26:45;;;;;;;14.20;3.60;;;;;;;14.07;44.04;95491.13;5010138;28;20026;-77
2024/04/05 07:29:10;;;;;;;7.95;3.22;;;;;;;14.23;43.55;95492.19;5026251;28;20033;-76
2024/04/05 07:31:36;;;;;;;4.70;2.78;;;;;;;14.34;43.23;95493.38;5028021;28;20036;-75
2024/04/05 07:34:05;;;;;;;8.10;3.08;;;;;;;14.45;42.97;95489.44;5025698;28;20079;-76
2024/04/05 07:36:32;;;;;;;9.35;3.55;;;;;;;14.63;42.89;95497.19;5025374;28;20087;-77
2024/04/05 07:38:57;;;;;;;6.72;3.63;;;;;;;14.73;42.58;95493.22;5009093;28;20423;-76
2024/04/05 07:41:22;;;;;;;8.43;3.10;;;;;;;14.85;42.45;95495.94;5025887;28;20570;-77
2024/04/05 07:43:51;;;;;;;8.38;3.42;;;;;;;15.03;42.33;95500.84;5009313;28;20032;-76
2024/04/05 07:46:17;;;;;;;7.22;3.45;;;;;;;15.18;41.93;95494.75;5025776;28;20052;-77
2024/04/05 07:48:43;;;;;;;8.38;2.92;;;;;;;15.31;41.87;95498.19;5027341;28;20024;-75
2024/04/05 07:51:10;;;;;;;8.10;3.92;;;;;;;15.48;41.38;95505.03;5025499;28;20470;-76
2024/04/05 07:53:35;;;;;;;6.03;2.80;;;;;;;15.66;40.96;95504.41;5027262;28;20029;-76
2024/04/05 07:56:03;;;;;;;9.15;2.75;;;;;;;15.83;40.44;95496.59;5026862;28;20044;-76
2024/04/05 07:58:28;;;;;;;12.48;5.30;;;;;;;15.95;40.59;95497.72;5025689;28;20419;-76
2024/04/05 08:00:54;;;;;;;9.50;4.13;;;;;;;16.09;40.36;95497.88;5025444;28;20025;-76
2024/04/05 08:03:19;;;;;;;9.15;2.65;;;;;;;16.22;40.16;95497.75;5008867;28;20037;-76
2024/04/05 08:05:45;;;;;;;6.47;2.10;;;;;;;16.42;38.79;95498.09;5027113;28;20021;-76
2024/04/05 08:08:12;;;;;;;3.40;2.05;;;;;;;16.73;37.83;95495.16;5024718;28;20033;-76
2024/04/05 08:10:38;;;;;;;5.88;2.20;;;;;;;16.88;38.00;95500.09;5025878;28;20029;-76
2024/04/05 08:13:03;;;;;;;6.78;2.08;;;;;;;17.17;36.66;95496.81;5025084;28;20514;-77
2024/04/05 08:15:30;;;;;;;7.68;2.72;;;;;;;17.40;36.36;95500.91;5026776;28;20037;-76
2024/04/05 08:17:55;;;;;;;4.82;2.10;;;;;;;17.53;36.12;95493.16;5025091;28;20018;-77
2024/04/05 08:20:21;;;;;;;4.45;1.80;;;;;;;17.69;35.54;95490.00;5025427;28;20017;-79
2024/04/05 08:22:46;;;;;;;4.13;1.65;;;;;;;17.90;35.00;95495.81;5026839;28;20029;-79
2024/04/05 08:25:12;;;;;;;3.20;1.20;;;;;;;18.13;34.13;95503.41;5024884;28;20331;-79
2024/04/05 08:27:37;;;;;;;3.38;1.20;;;;;;;18.22;34.12;95502.56;5026848;28;20408;-76
2024/04/05 08:30:03;;;;;;;9.80;3.15;;;;;;;18.51;33.25;95485.19;5008289;28;20483;-78
2024/04/05 08:32:29;;;;;;;7.15;3.13;;;;;;;18.77;33.09;95491.06;5025233;28;20029;-77
2024/04/05 08:34:55;;;;;;;5.82;2.83;;;;;;;19.12;31.99;95485.63;5026378;28;20086;-77
2024/04/05 08:37:21;;;;;;;5.78;2.45;;;;;;;19.34;31.20;95490.81;5008780;28;20054;-75
2024/04/05 08:39:47;;;;;;;14.25;2.10;;;;;;;19.53;31.20;95488.59;5008529;28;20113;-76
2024/04/05 08:42:15;;;;;;;6.07;1.58;;;;;;;19.68;31.01;95480.22;5025958;28;20501;-76
2024/04/05 08:44:44;;;;;;;7.07;1.90;;;;;;;19.93;31.10;95481.59;5029768;28;20032;-77
2024/04/05 08:47:10;;;;;;;4.68;2.22;;;;;;;20.26;29.46;95486.91;5024737;28;20064;-77
2024/04/05 08:49:36;;;;;;;5.35;2.28;;;;;;;20.43;29.41;95463.50;5025441;28;20504;-78
2024/04/05 08:52:02;;;;;;;5.35;2.30;;;;;;;20.75;29.13;95474.81;5024967;28;20061;-77
2024/04/05 08:54:29;;;;;;;3.53;1.75;;;;;;;21.04;28.57;95476.63;5026561;28;20099;-77
2024/04/05 08:56:55;;;;;;;4.63;1.80;;;;;;;21.31;28.89;95475.41;5024723;28;20025;-77
2024/04/05 08:59:21;;;;;;;12.80;5.38;;;;;;;21.58;28.62;95478.94;5026586;28;20097;-77
2024/04/05 09:01:51;;;;;;;3.75;2.35;;;;;;;21.80;27.43;95481.16;5024994;28;20029;-78
2024/04/05 09:04:17;;;;;;;5.80;1.20;;;;;;;22.01;27.25;95469.31;5024275;28;20078;-78
2024/04/05 09:06:43;;;;;;;3.08;1.30;;;;;;;22.25;26.89;95469.00;5024902;28;20037;-77
2024/04/05 09:09:09;;;;;;;3.88;1.33;;;;;;;22.50;26.39;95472.91;5025847;28;20029;-78
2024/04/05 09:11:35;;;;;;;4.45;1.00;;;;;;;22.79;26.62;95468.19;5024455;28;20030;-76
2024/04/05 09:14:04;;;;;;;3.55;1.40;;;;;;;23.11;26.21;95477.22;5024420;28;20049;-77
2024/04/05 09:16:34;;;;;;;4.60;2.15;;;;;;;23.41;25.55;95459.91;5024439;28;20422;-77
2024/04/05 09:19:10;;;;;;;4.05;1.20;;;;;;;23.74;24.59;95459.94;5024396;28;20499;-77
2024/04/05 09:21:44;;;;;;;3.03;1.55;;;;;;;24.06;24.43;95463.19;5025521;28;20033;-77
2024/04/05 09:24:11;;;;;;;2.38;1.30;;;;;;;24.33;24.10;95467.22;5024529;28;20029;-77
2024/04/05 09:26:36;;;;;;;1.60;0.60;;;;;;;24.59;23.27;95469.69;5024422;28;20029;-75
2024/04/05 09:29:03;;;;;;;3.85;1.05;;;;;;;24.74;23.11;95472.19;5007688;28;20074;-78
2024/04/05 09:31:29;;;;;;;3.45;0.73;;;;;;;24.94;23.29;95470.31;5024306;28;20029;-78
2024/04/05 09:34:14;;;;;;;6.45;3.05;;;;;;;25.19;23.04;95460.75;5024158;28;20033;-80
2024/04/05 09:36:41;;;;;;;2.60;1.00;;;;;;;25.45;22.50;95454.66;5025888;28;20041;-79
2024/04/05 09:39:16;;;;;;;3.83;1.65;;;;;;;25.75;22.04;95465.19;5024118;28;20064;-80
2024/04/05 09:41:43;;;;;;;3.45;0.95;;;;;;;26.03;21.47;95456.50;5024540;28;20566;-80
2024/04/05 09:44:08;;;;;;;4.15;1.90;;;;;;;26.26;21.37;95462.66;5024156;28;20428;-79
2024/04/05 09:46:35;;;;;;;3.47;0.98;;;;;;;26.14;21.58;95459.19;5008038;28;20028;-80
2024/04/05 09:49:01;;;;;;;4.43;1.38;;;;;;;26.22;20.70;95446.06;5024209;28;20134;-80
2024/04/05 09:51:44;;;;;;;4.25;1.50;;;;;;;26.54;20.67;95457.50;5025649;28;20029;-81
2024/04/05 09:54:13;;;;;;;2.65;0.98;;;;;;;26.79;20.09;95460.28;5024166;28;20018;-79
2024/04/05 09:56:40;;;;;;;2.00;0.65;;;;;;;26.83;19.93;95457.91;5024204;28;20104;-79
2024/04/05 09:59:27;;;;;;;2.47;0.60;;;;;;;26.68;19.73;95458.38;5026259;28;20021;-80
2024/04/05 10:01:52;;;;;;;3.78;1.77;;;;;;;26.90;20.04;95455.25;5037748;28;20017;-80
2024/04/05 10:04:18;;;;;;;2.42;0.90;;;;;;;27.25;19.37;95457.09;5032824;28;20083;-80
2024/04/05 10:06:44;;;;;;;10.48;1.77;;;;;;;27.48;19.35;95453.94;5028198;28;20033;-79
2024/04/05 10:09:16;;;;;;;10.20;1.95;;;;;;;27.77;19.35;95447.31;5028816;28;20021;-79
2024/04/05 10:11:45;;;;;;;9.30;1.52;;;;;;;28.11;18.66;95451.63;5028224;28;20049;-80
2024/04/05 10:14:36;;;;;;;17.38;1.98;;;;;;;28.41;18.39;95445.69;5010914;28;20322;-79
2024/04/05 10:17:09;;;;;;;13.98;1.70;;;;;;;28.66;17.83;95443.38;5011564;28;20021;-79
2024/04/05 10:19:38;;;;;;;6.90;1.58;;;;;;;28.78;18.04;95450.31;5027896;28;20399;-78
2024/04/05 10:22:05;;;;;;;3.47;0.93;;;;;;;28.58;17.67;95454.59;5027091;28;20037;-78
2024/04/05 10:24:31;;;;;;;13.10;1.80;;;;;;;28.30;17.67;95436.09;5027524;28;20060;-78
2024/04/05 10:26:58;;;;;;;25.48;3.05;;;;;;;28.16;18.13;95442.25;5027286;28;20543;-79
2024/04/05 10:29:25;;;;;;;8.45;1.23;;;;;;;28.09;17.71;95446.50;5027554;28;20021;-80
2024/04/05 10:31:59;;;;;;;1.88;0.55;;;;;;;28.26;17.74;95432.06;5011027;28;20441;-79
2024/04/05 10:34:24;;;;;;;6.03;1.13;;;;;;;28.38;17.62;95439.03;5028753;28;20061;-79
2024/04/05 10:36:50;;;;;;;13.05;1.80;;;;;;;28.55;17.64;95436.63;5027408;28;20109;-79
2024/04/05 10:39:18;;;;;;;16.52;1.88;;;;;;;29.50;17.18;95435.91;5026620;28;20048;-78
2024/04/05 10:41:48;;;;;;;10.93;1.95;;;;;;;29.77;17.41;95428.81;5028525;28;20045;-80
2024/04/05 10:44:14;;;;;;;3.72;0.95;;;;;;;29.46;16.65;95433.41;5026977;28;20036;-79
2024/04/05 10:46:41;;;;;;;11.65;2.03;;;;;;;29.12;16.92;95424.16;5028741;28;20029;-79
2024/04/05 10:49:07;;;;;;;12.07;1.92;;;;;;;28.74;17.43;95428.03;5026880;28;20448;-78
2024/04/05 10:51:33;;;;;;;8.15;1.75;;;;;;;28.51;17.68;95421.34;5027120;28;20539;-79
2024/04/05 10:54:28;;;;;;;6.55;1.20;;;;;;;28.26;17.96;95421.50;5010492;28;20032;-79
2024/04/05 10:56:53;;;;;;;4.47;1.23;;;;;;;28.01;18.39;95423.78;5026220;28;20443;-80
2024/04/05 10:59:19;;;;;;;6.30;1.80;;;;;;;27.65;19.07;95417.72;5009320;28;20258;-79
2024/04/05 11:01:47;;;;;;;5.72;1.40;;;;;;;27.48;19.17;95422.88;5009221;28;20069;-79
2024/04/05 11:04:13;;;;;;;5.05;1.70;;;;;;;27.27;19.21;95431.91;5009423;28;20029;-80
2024/04/05 11:06:39;;;;;;;1.55;0.90;;;;;;;26.97;19.63;95431.31;5009305;28;20033;-81
2024/04/05 11:09:09;;;;;;;4.20;0.68;;;;;;;26.62;19.89;95427.41;5025230;28;20065;-82
2024/04/05 11:11:35;;;;;;;3.70;0.70;;;;;;;26.27;20.26;95433.22;5025969;28;20056;-79
2024/04/05 11:14:01;;;;;;;7.97;1.50;;;;;;;26.09;21.18;95432.63;5008585;28;20116;-82
2024/04/05 11:16:27;;;;;;;4.90;1.27;;;;;;;26.19;20.69;95439.41;5025699;28;20162;-81
2024/04/05 11:18:53;;;;;;;5.50;1.42;;;;;;;26.22;20.71;95434.78;5009187;28;20057;-79
2024/04/05 11:21:20;;;;;;;3.15;1.42;;;;;;;26.28;20.84;95429.09;5003863;28;20041;-82
2024/04/05 11:23:53;;;;;;;7.70;4.13;;;;;;;26.16;20.99;95414.38;4993247;28;20030;-80
2024/04/05 11:26:31;;;;;;;3.42;1.73;;;;;;;25.93;21.41;95419.47;5008503;28;20132;-80
2024/04/05 11:29:00;;;;;;;5.05;1.33;;;;;;;25.91;21.38;95424.84;5009310;28;20516;-79